Almonesson, New Jersey
Current Conditions -  °F | °C
As of 2:54 AM on Friday 19 Dec 2014 (Local Time) from KPHL Reporting Station
Broken Clouds Broken Clouds  
Wind Chill: -1°   Ceiling: 4000
Heat Index:   Visibility: 10mi
Dew Point: -4°   Wind: 9mph
Humidity: 62%   Direction: 280°W
Pressure: 30.05"   Gusts: NA
Location:  39.8266°N, 75.1276°W
Report Text: KPHL 190754Z 28008KT 10SM BKN040 03/M04 A3005 RMK AO2 SLP176 T00281039
Loading
Personal Weather Stations






























Interactive Weather Map New forecast layout! Learn more

10-Day Weather Forecast

Advertisements
Track Severe Weather on mobile